sensor_id;sensor_type;location;lat;lon;timestamp;P1;durP1;ratioP1;P2;durP2;ratioP2
44181;SDS011;30436;48.888;9.202;2022-07-21T00:00:56;12.05;;;10.18;;
44181;SDS011;30436;48.888;9.202;2022-07-21T00:03:21;11.32;;;10.23;;
44181;SDS011;30436;48.888;9.202;2022-07-21T00:05:47;10.82;;;9.82;;
44181;SDS011;30436;48.888;9.202;2022-07-21T00:08:13;11.73;;;9.88;;
44181;SDS011;30436;48.888;9.202;2022-07-21T00:10:39;10.98;;;9.98;;
44181;SDS011;30436;48.888;9.202;2022-07-21T00:13:05;10.65;;;9.65;;
44181;SDS011;30436;48.888;9.202;2022-07-21T00:15:31;11.13;;;10.13;;
44181;SDS011;30436;48.888;9.202;2022-07-21T00:17:58;12.38;;;11.25;;
44181;SDS011;30436;48.888;9.202;2022-07-21T00:20:24;11.68;;;10.50;;
44181;SDS011;30436;48.888;9.202;2022-07-21T00:22:52;15.10;;;11.65;;
44181;SDS011;30436;48.888;9.202;2022-07-21T00:25:18;12.75;;;11.07;;
44181;SDS011;30436;48.888;9.202;2022-07-21T00:27:45;11.68;;;10.18;;
44181;SDS011;30436;48.888;9.202;2022-07-21T00:30:11;12.52;;;11.10;;
44181;SDS011;30436;48.888;9.202;2022-07-21T00:32:38;10.90;;;9.93;;
44181;SDS011;30436;48.888;9.202;2022-07-21T00:35:04;12.13;;;10.88;;
44181;SDS011;30436;48.888;9.202;2022-07-21T00:37:31;11.88;;;10.77;;
44181;SDS011;30436;48.888;9.202;2022-07-21T00:39:56;12.93;;;11.63;;
44181;SDS011;30436;48.888;9.202;2022-07-21T00:42:23;12.15;;;11.05;;
44181;SDS011;30436;48.888;9.202;2022-07-21T00:44:51;12.07;;;10.52;;
44181;SDS011;30436;48.888;9.202;2022-07-21T00:47:20;11.38;;;10.23;;
44181;SDS011;30436;48.888;9.202;2022-07-21T00:49:47;11.98;;;10.68;;
44181;SDS011;30436;48.888;9.202;2022-07-21T00:52:14;11.60;;;10.32;;
44181;SDS011;30436;48.888;9.202;2022-07-21T00:54:40;11.85;;;10.68;;
44181;SDS011;30436;48.888;9.202;2022-07-21T00:57:06;12.35;;;10.45;;
44181;SDS011;30436;48.888;9.202;2022-07-21T00:59:32;12.20;;;10.75;;
44181;SDS011;30436;48.888;9.202;2022-07-21T01:01:58;11.55;;;10.07;;
44181;SDS011;30436;48.888;9.202;2022-07-21T01:04:23;11.77;;;10.30;;
44181;SDS011;30436;48.888;9.202;2022-07-21T01:06:49;10.63;;;9.60;;
44181;SDS011;30436;48.888;9.202;2022-07-21T01:09:14;11.95;;;9.77;;
44181;SDS011;30436;48.888;9.202;2022-07-21T01:11:40;11.05;;;9.70;;
44181;SDS011;30436;48.888;9.202;2022-07-21T01:14:08;10.30;;;9.05;;
44181;SDS011;30436;48.888;9.202;2022-07-21T01:16:33;12.80;;;9.30;;
44181;SDS011;30436;48.888;9.202;2022-07-21T01:19:00;9.15;;;8.30;;
44181;SDS011;30436;48.888;9.202;2022-07-21T01:23:55;10.20;;;9.20;;
44181;SDS011;30436;48.888;9.202;2022-07-21T01:26:21;10.93;;;9.52;;
44181;SDS011;30436;48.888;9.202;2022-07-21T01:28:47;10.20;;;9.10;;
44181;SDS011;30436;48.888;9.202;2022-07-21T01:31:12;11.18;;;9.20;;
44181;SDS011;30436;48.888;9.202;2022-07-21T01:33:39;10.48;;;9.13;;
44181;SDS011;30436;48.888;9.202;2022-07-21T01:36:05;10.90;;;9.80;;
44181;SDS011;30436;48.888;9.202;2022-07-21T01:38:31;11.32;;;9.93;;
44181;SDS011;30436;48.888;9.202;2022-07-21T01:41:15;11.23;;;9.43;;
44181;SDS011;30436;48.888;9.202;2022-07-21T01:43:59;13.88;;;10.18;;
44181;SDS011;30436;48.888;9.202;2022-07-21T01:46:27;11.52;;;10.32;;
44181;SDS011;30436;48.888;9.202;2022-07-21T01:48:59;11.80;;;10.43;;
44181;SDS011;30436;48.888;9.202;2022-07-21T01:51:25;12.73;;;11.27;;
44181;SDS011;30436;48.888;9.202;2022-07-21T01:53:51;11.70;;;10.50;;
44181;SDS011;30436;48.888;9.202;2022-07-21T01:56:19;12.05;;;10.27;;
44181;SDS011;30436;48.888;9.202;2022-07-21T01:58:46;11.75;;;10.55;;
44181;SDS011;30436;48.888;9.202;2022-07-21T02:01:14;12.70;;;11.32;;
44181;SDS011;30436;48.888;9.202;2022-07-21T02:03:43;12.30;;;11.10;;
44181;SDS011;30436;48.888;9.202;2022-07-21T02:06:09;12.20;;;11.00;;
44181;SDS011;30436;48.888;9.202;2022-07-21T02:08:35;11.88;;;10.63;;
44181;SDS011;30436;48.888;9.202;2022-07-21T02:11:02;13.63;;;11.95;;
44181;SDS011;30436;48.888;9.202;2022-07-21T02:13:28;12.88;;;11.65;;
44181;SDS011;30436;48.888;9.202;2022-07-21T02:15:54;15.80;;;12.65;;
44181;SDS011;30436;48.888;9.202;2022-07-21T02:18:20;13.82;;;11.73;;
44181;SDS011;30436;48.888;9.202;2022-07-21T02:20:45;13.90;;;11.40;;
44181;SDS011;30436;48.888;9.202;2022-07-21T02:23:13;12.68;;;11.45;;
44181;SDS011;30436;48.888;9.202;2022-07-21T02:25:39;13.48;;;12.18;;
44181;SDS011;30436;48.888;9.202;2022-07-21T02:28:05;13.65;;;12.20;;
44181;SDS011;30436;48.888;9.202;2022-07-21T02:30:31;13.32;;;12.05;;
44181;SDS011;30436;48.888;9.202;2022-07-21T02:32:57;13.45;;;11.23;;
44181;SDS011;30436;48.888;9.202;2022-07-21T02:35:22;12.60;;;11.30;;
44181;SDS011;30436;48.888;9.202;2022-07-21T02:37:48;13.88;;;11.38;;
44181;SDS011;30436;48.888;9.202;2022-07-21T02:40:14;11.98;;;10.15;;
44181;SDS011;30436;48.888;9.202;2022-07-21T02:42:39;11.85;;;10.48;;
44181;SDS011;30436;48.888;9.202;2022-07-21T02:45:06;11.52;;;10.43;;
44181;SDS011;30436;48.888;9.202;2022-07-21T02:47:46;13.93;;;10.20;;
44181;SDS011;30436;48.888;9.202;2022-07-21T02:50:33;13.32;;;11.02;;
44181;SDS011;30436;48.888;9.202;2022-07-21T02:53:01;13.40;;;10.88;;
44181;SDS011;30436;48.888;9.202;2022-07-21T02:55:31;11.73;;;10.52;;
44181;SDS011;30436;48.888;9.202;2022-07-21T03:00:37;13.77;;;10.82;;
44181;SDS011;30436;48.888;9.202;2022-07-21T03:03:05;12.50;;;10.88;;
44181;SDS011;30436;48.888;9.202;2022-07-21T03:05:32;12.52;;;11.25;;
44181;SDS011;30436;48.888;9.202;2022-07-21T03:07:58;13.68;;;11.60;;
44181;SDS011;30436;48.888;9.202;2022-07-21T03:10:23;12.90;;;11.68;;
44181;SDS011;30436;48.888;9.202;2022-07-21T03:12:49;12.98;;;11.68;;
44181;SDS011;30436;48.888;9.202;2022-07-21T03:15:15;12.77;;;11.57;;
44181;SDS011;30436;48.888;9.202;2022-07-21T03:17:40;12.77;;;11.05;;
44181;SDS011;30436;48.888;9.202;2022-07-21T03:20:06;12.68;;;11.45;;
44181;SDS011;30436;48.888;9.202;2022-07-21T03:22:33;15.40;;;12.02;;
44181;SDS011;30436;48.888;9.202;2022-07-21T03:24:59;16.85;;;13.10;;
44181;SDS011;30436;48.888;9.202;2022-07-21T03:27:25;14.75;;;13.25;;
44181;SDS011;30436;48.888;9.202;2022-07-21T03:29:50;17.15;;;12.55;;
44181;SDS011;30436;48.888;9.202;2022-07-21T03:32:16;14.55;;;12.55;;
44181;SDS011;30436;48.888;9.202;2022-07-21T03:34:42;15.15;;;12.93;;
44181;SDS011;30436;48.888;9.202;2022-07-21T03:37:10;13.30;;;11.05;;
44181;SDS011;30436;48.888;9.202;2022-07-21T03:39:36;15.52;;;12.68;;
44181;SDS011;30436;48.888;9.202;2022-07-21T03:42:01;13.05;;;11.65;;
44181;SDS011;30436;48.888;9.202;2022-07-21T03:44:27;12.32;;;11.02;;
44181;SDS011;30436;48.888;9.202;2022-07-21T03:46:53;13.35;;;11.55;;
44181;SDS011;30436;48.888;9.202;2022-07-21T03:49:18;12.32;;;10.93;;
44181;SDS011;30436;48.888;9.202;2022-07-21T03:51:44;12.35;;;11.05;;
44181;SDS011;30436;48.888;9.202;2022-07-21T03:54:09;14.25;;;11.25;;
44181;SDS011;30436;48.888;9.202;2022-07-21T03:56:35;13.27;;;11.75;;
44181;SDS011;30436;48.888;9.202;2022-07-21T03:59:01;11.77;;;10.10;;
44181;SDS011;30436;48.888;9.202;2022-07-21T04:01:26;12.57;;;11.32;;
44181;SDS011;30436;48.888;9.202;2022-07-21T04:03:52;11.55;;;10.43;;
44181;SDS011;30436;48.888;9.202;2022-07-21T04:06:18;11.73;;;10.52;;
44181;SDS011;30436;48.888;9.202;2022-07-21T04:08:43;13.85;;;10.63;;
44181;SDS011;30436;48.888;9.202;2022-07-21T04:11:09;11.93;;;10.80;;
44181;SDS011;30436;48.888;9.202;2022-07-21T04:13:35;12.60;;;10.80;;
44181;SDS011;30436;48.888;9.202;2022-07-21T04:16:01;12.75;;;11.07;;
44181;SDS011;30436;48.888;9.202;2022-07-21T04:18:26;14.70;;;11.13;;
44181;SDS011;30436;48.888;9.202;2022-07-21T04:20:52;11.82;;;10.73;;
44181;SDS011;30436;48.888;9.202;2022-07-21T04:23:18;11.65;;;10.50;;
44181;SDS011;30436;48.888;9.202;2022-07-21T04:25:43;12.93;;;11.63;;
44181;SDS011;30436;48.888;9.202;2022-07-21T04:28:09;12.40;;;11.10;;
44181;SDS011;30436;48.888;9.202;2022-07-21T04:30:36;11.60;;;10.45;;
44181;SDS011;30436;48.888;9.202;2022-07-21T04:33:02;13.20;;;11.43;;
44181;SDS011;30436;48.888;9.202;2022-07-21T04:35:30;12.75;;;11.27;;
44181;SDS011;30436;48.888;9.202;2022-07-21T04:37:55;11.85;;;10.65;;
44181;SDS011;30436;48.888;9.202;2022-07-21T04:40:21;13.70;;;12.02;;
44181;SDS011;30436;48.888;9.202;2022-07-21T04:42:46;13.95;;;10.68;;
44181;SDS011;30436;48.888;9.202;2022-07-21T04:45:13;12.27;;;11.00;;
44181;SDS011;30436;48.888;9.202;2022-07-21T04:47:47;12.23;;;10.15;;
44181;SDS011;30436;48.888;9.202;2022-07-21T04:50:14;12.32;;;11.20;;
44181;SDS011;30436;48.888;9.202;2022-07-21T04:52:40;11.93;;;10.15;;
44181;SDS011;30436;48.888;9.202;2022-07-21T04:55:06;14.50;;;11.25;;
44181;SDS011;30436;48.888;9.202;2022-07-21T04:57:36;11.57;;;10.35;;
44181;SDS011;30436;48.888;9.202;2022-07-21T05:00:07;14.32;;;10.95;;
44181;SDS011;30436;48.888;9.202;2022-07-21T05:02:35;12.40;;;10.60;;
44181;SDS011;30436;48.888;9.202;2022-07-21T05:05:01;11.68;;;10.57;;
44181;SDS011;30436;48.888;9.202;2022-07-21T05:07:27;11.07;;;9.98;;
44181;SDS011;30436;48.888;9.202;2022-07-21T05:09:53;12.77;;;11.32;;
44181;SDS011;30436;48.888;9.202;2022-07-21T05:12:18;12.55;;;11.27;;
44181;SDS011;30436;48.888;9.202;2022-07-21T05:14:44;11.77;;;10.57;;
44181;SDS011;30436;48.888;9.202;2022-07-21T05:17:10;11.60;;;10.45;;
44181;SDS011;30436;48.888;9.202;2022-07-21T05:19:35;14.00;;;11.05;;
44181;SDS011;30436;48.888;9.202;2022-07-21T05:22:01;13.02;;;10.18;;
44181;SDS011;30436;48.888;9.202;2022-07-21T05:24:27;12.10;;;10.80;;
44181;SDS011;30436;48.888;9.202;2022-07-21T05:26:52;12.93;;;11.07;;
44181;SDS011;30436;48.888;9.202;2022-07-21T05:29:18;12.48;;;10.70;;
44181;SDS011;30436;48.888;9.202;2022-07-21T05:31:43;12.18;;;10.85;;
44181;SDS011;30436;48.888;9.202;2022-07-21T05:34:10;12.50;;;11.20;;
44181;SDS011;30436;48.888;9.202;2022-07-21T05:36:35;12.85;;;11.02;;
44181;SDS011;30436;48.888;9.202;2022-07-21T05:39:01;12.02;;;10.65;;
44181;SDS011;30436;48.888;9.202;2022-07-21T05:41:27;11.85;;;10.65;;
44181;SDS011;30436;48.888;9.202;2022-07-21T05:43:53;12.90;;;10.85;;
44181;SDS011;30436;48.888;9.202;2022-07-21T05:46:19;11.00;;;9.93;;
44181;SDS011;30436;48.888;9.202;2022-07-21T05:48:44;11.70;;;10.40;;
44181;SDS011;30436;48.888;9.202;2022-07-21T05:51:10;11.25;;;10.15;;
44181;SDS011;30436;48.888;9.202;2022-07-21T05:53:36;13.20;;;10.93;;
44181;SDS011;30436;48.888;9.202;2022-07-21T05:56:01;11.93;;;10.73;;
44181;SDS011;30436;48.888;9.202;2022-07-21T05:58:27;11.88;;;10.35;;
44181;SDS011;30436;48.888;9.202;2022-07-21T06:00:53;11.63;;;10.43;;
44181;SDS011;30436;48.888;9.202;2022-07-21T06:03:37;11.65;;;10.52;;
44181;SDS011;30436;48.888;9.202;2022-07-21T06:06:04;11.80;;;10.40;;
44181;SDS011;30436;48.888;9.202;2022-07-21T06:08:31;13.73;;;10.90;;
44181;SDS011;30436;48.888;9.202;2022-07-21T06:10:56;10.57;;;9.45;;
44181;SDS011;30436;48.888;9.202;2022-07-21T06:13:22;12.88;;;10.18;;
44181;SDS011;30436;48.888;9.202;2022-07-21T06:15:48;11.63;;;10.45;;
44181;SDS011;30436;48.888;9.202;2022-07-21T06:18:14;11.93;;;10.30;;
44181;SDS011;30436;48.888;9.202;2022-07-21T06:20:40;10.80;;;9.68;;
44181;SDS011;30436;48.888;9.202;2022-07-21T06:23:06;15.30;;;9.90;;
44181;SDS011;30436;48.888;9.202;2022-07-21T06:25:32;12.52;;;9.52;;
44181;SDS011;30436;48.888;9.202;2022-07-21T06:27:58;12.32;;;10.07;;
44181;SDS011;30436;48.888;9.202;2022-07-21T06:30:23;10.90;;;9.80;;
44181;SDS011;30436;48.888;9.202;2022-07-21T06:32:49;13.95;;;10.70;;
44181;SDS011;30436;48.888;9.202;2022-07-21T06:35:15;11.32;;;9.50;;
44181;SDS011;30436;48.888;9.202;2022-07-21T06:37:44;10.38;;;9.38;;
44181;SDS011;30436;48.888;9.202;2022-07-21T06:40:11;10.07;;;9.00;;
44181;SDS011;30436;48.888;9.202;2022-07-21T06:42:37;10.93;;;9.90;;
44181;SDS011;30436;48.888;9.202;2022-07-21T06:45:03;10.27;;;9.27;;
44181;SDS011;30436;48.888;9.202;2022-07-21T06:47:30;11.38;;;9.25;;
44181;SDS011;30436;48.888;9.202;2022-07-21T06:49:55;10.60;;;8.98;;
44181;SDS011;30436;48.888;9.202;2022-07-21T06:52:27;10.57;;;9.50;;
44181;SDS011;30436;48.888;9.202;2022-07-21T06:54:56;11.18;;;10.07;;
44181;SDS011;30436;48.888;9.202;2022-07-21T06:57:22;10.60;;;9.45;;
44181;SDS011;30436;48.888;9.202;2022-07-21T06:59:48;14.82;;;9.45;;
44181;SDS011;30436;48.888;9.202;2022-07-21T07:02:14;11.88;;;9.35;;
44181;SDS011;30436;48.888;9.202;2022-07-21T07:04:40;10.20;;;9.00;;
44181;SDS011;30436;48.888;9.202;2022-07-21T07:07:05;10.35;;;9.05;;
44181;SDS011;30436;48.888;9.202;2022-07-21T07:09:31;9.75;;;8.85;;
44181;SDS011;30436;48.888;9.202;2022-07-21T07:11:57;9.20;;;8.30;;
44181;SDS011;30436;48.888;9.202;2022-07-21T07:14:29;10.18;;;8.43;;
44181;SDS011;30436;48.888;9.202;2022-07-21T07:16:55;12.38;;;9.05;;
44181;SDS011;30436;48.888;9.202;2022-07-21T07:19:21;11.02;;;9.07;;
44181;SDS011;30436;48.888;9.202;2022-07-21T07:21:47;11.15;;;9.77;;
44181;SDS011;30436;48.888;9.202;2022-07-21T07:24:13;9.80;;;8.80;;
44181;SDS011;30436;48.888;9.202;2022-07-21T07:26:39;9.90;;;8.57;;
44181;SDS011;30436;48.888;9.202;2022-07-21T07:29:04;9.63;;;8.63;;
44181;SDS011;30436;48.888;9.202;2022-07-21T07:31:30;9.32;;;8.20;;
44181;SDS011;30436;48.888;9.202;2022-07-21T07:33:56;10.30;;;7.72;;
44181;SDS011;30436;48.888;9.202;2022-07-21T07:36:25;8.55;;;7.72;;
44181;SDS011;30436;48.888;9.202;2022-07-21T07:38:52;8.82;;;7.95;;
44181;SDS011;30436;48.888;9.202;2022-07-21T07:41:19;8.93;;;8.05;;
44181;SDS011;30436;48.888;9.202;2022-07-21T07:43:45;10.50;;;7.78;;
44181;SDS011;30436;48.888;9.202;2022-07-21T07:46:11;8.00;;;6.88;;
44181;SDS011;30436;48.888;9.202;2022-07-21T07:48:38;9.32;;;6.60;;
44181;SDS011;30436;48.888;9.202;2022-07-21T07:51:05;7.95;;;7.13;;
44181;SDS011;30436;48.888;9.202;2022-07-21T07:53:32;11.10;;;7.30;;
44181;SDS011;30436;48.888;9.202;2022-07-21T07:55:58;9.73;;;6.95;;
44181;SDS011;30436;48.888;9.202;2022-07-21T07:58:23;8.63;;;6.65;;
44181;SDS011;30436;48.888;9.202;2022-07-21T08:00:49;7.85;;;7.00;;
44181;SDS011;30436;48.888;9.202;2022-07-21T08:03:15;9.23;;;6.82;;
44181;SDS011;30436;48.888;9.202;2022-07-21T08:05:41;7.85;;;6.93;;
44181;SDS011;30436;48.888;9.202;2022-07-21T08:08:07;7.65;;;6.57;;
44181;SDS011;30436;48.888;9.202;2022-07-21T08:10:32;7.35;;;6.65;;
44181;SDS011;30436;48.888;9.202;2022-07-21T08:12:58;9.00;;;6.70;;
44181;SDS011;30436;48.888;9.202;2022-07-21T08:15:24;6.32;;;5.82;;
44181;SDS011;30436;48.888;9.202;2022-07-21T08:17:50;7.57;;;6.30;;
44181;SDS011;30436;48.888;9.202;2022-07-21T08:20:16;7.10;;;6.40;;
44181;SDS011;30436;48.888;9.202;2022-07-21T08:22:42;7.25;;;6.15;;
44181;SDS011;30436;48.888;9.202;2022-07-21T08:25:08;6.90;;;6.20;;
44181;SDS011;30436;48.888;9.202;2022-07-21T08:27:33;6.35;;;5.00;;
44181;SDS011;30436;48.888;9.202;2022-07-21T08:29:59;7.57;;;6.40;;
44181;SDS011;30436;48.888;9.202;2022-07-21T08:32:25;7.85;;;5.93;;
44181;SDS011;30436;48.888;9.202;2022-07-21T08:34:50;7.43;;;5.78;;
44181;SDS011;30436;48.888;9.202;2022-07-21T08:37:18;6.70;;;5.40;;
44181;SDS011;30436;48.888;9.202;2022-07-21T08:39:45;7.65;;;5.07;;
44181;SDS011;30436;48.888;9.202;2022-07-21T08:42:12;8.57;;;5.53;;
44181;SDS011;30436;48.888;9.202;2022-07-21T08:44:39;5.80;;;4.55;;
44181;SDS011;30436;48.888;9.202;2022-07-21T08:47:05;6.00;;;4.88;;
44181;SDS011;30436;48.888;9.202;2022-07-21T08:49:32;6.45;;;5.13;;
44181;SDS011;30436;48.888;9.202;2022-07-21T08:51:59;6.80;;;5.20;;
44181;SDS011;30436;48.888;9.202;2022-07-21T08:54:25;7.25;;;5.53;;
44181;SDS011;30436;48.888;9.202;2022-07-21T08:56:51;6.63;;;5.60;;
44181;SDS011;30436;48.888;9.202;2022-07-21T08:59:17;5.90;;;5.30;;
44181;SDS011;30436;48.888;9.202;2022-07-21T09:01:43;6.30;;;5.20;;
44181;SDS011;30436;48.888;9.202;2022-07-21T09:07:06;5.68;;;4.78;;
44181;SDS011;30436;48.888;9.202;2022-07-21T09:09:33;5.97;;;5.20;;
44181;SDS011;30436;48.888;9.202;2022-07-21T09:12:00;6.63;;;5.20;;
44181;SDS011;30436;48.888;9.202;2022-07-21T09:14:32;5.38;;;4.78;;
44181;SDS011;30436;48.888;9.202;2022-07-21T09:16:59;6.57;;;5.32;;
44181;SDS011;30436;48.888;9.202;2022-07-21T09:19:33;7.35;;;5.70;;
44181;SDS011;30436;48.888;9.202;2022-07-21T09:22:05;5.90;;;5.28;;
44181;SDS011;30436;48.888;9.202;2022-07-21T09:24:36;6.60;;;5.82;;
44181;SDS011;30436;48.888;9.202;2022-07-21T09:27:09;8.07;;;5.80;;
44181;SDS011;30436;48.888;9.202;2022-07-21T09:29:44;5.63;;;4.53;;
44181;SDS011;30436;48.888;9.202;2022-07-21T09:32:15;6.38;;;4.72;;
44181;SDS011;30436;48.888;9.202;2022-07-21T09:34:46;4.65;;;4.25;;
44181;SDS011;30436;48.888;9.202;2022-07-21T09:37:13;5.20;;;4.13;;
44181;SDS011;30436;48.888;9.202;2022-07-21T09:39:43;7.45;;;4.85;;
44181;SDS011;30436;48.888;9.202;2022-07-21T09:42:21;4.65;;;4.25;;
44181;SDS011;30436;48.888;9.202;2022-07-21T09:44:52;5.18;;;4.43;;
44181;SDS011;30436;48.888;9.202;2022-07-21T09:47:26;6.20;;;5.60;;
44181;SDS011;30436;48.888;9.202;2022-07-21T09:49:54;5.32;;;4.82;;
44181;SDS011;30436;48.888;9.202;2022-07-21T09:52:27;6.72;;;5.13;;
44181;SDS011;30436;48.888;9.202;2022-07-21T10:17:42;7.28;;;5.30;;
44181;SDS011;30436;48.888;9.202;2022-07-21T10:20:28;6.55;;;5.20;;
44181;SDS011;30436;48.888;9.202;2022-07-21T10:23:07;7.63;;;4.97;;
44181;SDS011;30436;48.888;9.202;2022-07-21T10:25:42;7.38;;;4.97;;
44181;SDS011;30436;48.888;9.202;2022-07-21T10:28:24;6.68;;;4.80;;
44181;SDS011;30436;48.888;9.202;2022-07-21T10:30:58;7.68;;;5.00;;
44181;SDS011;30436;48.888;9.202;2022-07-21T10:41:40;8.45;;;4.35;;
44181;SDS011;30436;48.888;9.202;2022-07-21T10:47:39;5.20;;;4.50;;
44181;SDS011;30436;48.888;9.202;2022-07-21T10:50:32;4.88;;;4.38;;
44181;SDS011;30436;48.888;9.202;2022-07-21T10:56:53;4.82;;;4.32;;
44181;SDS011;30436;48.888;9.202;2022-07-21T11:00:48;5.57;;;4.00;;
44181;SDS011;30436;48.888;9.202;2022-07-21T11:03:42;6.07;;;3.92;;
44181;SDS011;30436;48.888;9.202;2022-07-21T11:06:41;6.00;;;4.13;;
44181;SDS011;30436;48.888;9.202;2022-07-21T11:25:22;4.57;;;3.92;;
44181;SDS011;30436;48.888;9.202;2022-07-21T11:32:15;4.65;;;3.60;;
44181;SDS011;30436;48.888;9.202;2022-07-21T12:04:52;4.88;;;4.10;;
44181;SDS011;30436;48.888;9.202;2022-07-21T12:07:35;5.47;;;4.50;;
44181;SDS011;30436;48.888;9.202;2022-07-21T12:16:48;5.10;;;4.70;;
44181;SDS011;30436;48.888;9.202;2022-07-21T12:19:15;5.95;;;4.72;;
44181;SDS011;30436;48.888;9.202;2022-07-21T12:21:52;5.70;;;4.65;;
44181;SDS011;30436;48.888;9.202;2022-07-21T12:24:47;6.53;;;5.00;;
44181;SDS011;30436;48.888;9.202;2022-07-21T12:27:20;6.18;;;5.03;;
44181;SDS011;30436;48.888;9.202;2022-07-21T12:30:29;5.80;;;4.50;;
44181;SDS011;30436;48.888;9.202;2022-07-21T12:33:05;8.35;;;4.80;;
44181;SDS011;30436;48.888;9.202;2022-07-21T12:35:36;4.88;;;4.47;;
44181;SDS011;30436;48.888;9.202;2022-07-21T12:38:18;5.22;;;4.72;;
44181;SDS011;30436;48.888;9.202;2022-07-21T12:41:43;5.28;;;4.78;;
44181;SDS011;30436;48.888;9.202;2022-07-21T12:44:54;5.20;;;4.70;;
44181;SDS011;30436;48.888;9.202;2022-07-21T12:47:39;5.90;;;4.93;;
44181;SDS011;30436;48.888;9.202;2022-07-21T12:50:28;5.47;;;4.60;;
44181;SDS011;30436;48.888;9.202;2022-07-21T12:52:58;6.38;;;4.82;;
44181;SDS011;30436;48.888;9.202;2022-07-21T12:55:27;8.68;;;4.70;;
44181;SDS011;30436;48.888;9.202;2022-07-21T12:58:34;5.03;;;4.55;;
44181;SDS011;30436;48.888;9.202;2022-07-21T13:01:59;6.28;;;5.00;;
44181;SDS011;30436;48.888;9.202;2022-07-21T13:05:04;6.70;;;4.80;;
44181;SDS011;30436;48.888;9.202;2022-07-21T13:07:36;5.75;;;5.18;;
44181;SDS011;30436;48.888;9.202;2022-07-21T13:10:09;6.57;;;4.68;;
44181;SDS011;30436;48.888;9.202;2022-07-21T13:12:38;4.85;;;4.35;;
44181;SDS011;30436;48.888;9.202;2022-07-21T13:15:04;6.07;;;4.85;;
44181;SDS011;30436;48.888;9.202;2022-07-21T13:17:30;4.78;;;4.28;;
44181;SDS011;30436;48.888;9.202;2022-07-21T13:19:59;6.10;;;4.22;;
44181;SDS011;30436;48.888;9.202;2022-07-21T13:22:25;6.50;;;4.70;;
44181;SDS011;30436;48.888;9.202;2022-07-21T13:24:56;5.05;;;4.50;;
44181;SDS011;30436;48.888;9.202;2022-07-21T13:27:24;5.38;;;4.28;;
44181;SDS011;30436;48.888;9.202;2022-07-21T13:30:07;4.85;;;4.05;;
44181;SDS011;30436;48.888;9.202;2022-07-21T13:33:14;4.30;;;3.85;;
44181;SDS011;30436;48.888;9.202;2022-07-21T13:35:39;4.15;;;3.80;;
44181;SDS011;30436;48.888;9.202;2022-07-21T13:38:05;4.35;;;3.92;;
44181;SDS011;30436;48.888;9.202;2022-07-21T13:40:33;4.65;;;3.92;;
44181;SDS011;30436;48.888;9.202;2022-07-21T13:42:59;4.65;;;4.25;;
44181;SDS011;30436;48.888;9.202;2022-07-21T13:45:25;4.05;;;3.75;;
44181;SDS011;30436;48.888;9.202;2022-07-21T13:47:51;4.68;;;3.65;;
44181;SDS011;30436;48.888;9.202;2022-07-21T13:50:19;4.75;;;3.75;;
44181;SDS011;30436;48.888;9.202;2022-07-21T13:52:45;4.38;;;3.70;;
44181;SDS011;30436;48.888;9.202;2022-07-21T13:55:13;6.40;;;3.90;;
44181;SDS011;30436;48.888;9.202;2022-07-21T13:57:39;5.35;;;3.70;;
44181;SDS011;30436;48.888;9.202;2022-07-21T14:00:06;3.90;;;3.50;;
44181;SDS011;30436;48.888;9.202;2022-07-21T14:02:33;3.88;;;3.58;;
44181;SDS011;30436;48.888;9.202;2022-07-21T14:04:59;4.03;;;3.50;;
44181;SDS011;30436;48.888;9.202;2022-07-21T14:07:25;4.57;;;3.83;;
44181;SDS011;30436;48.888;9.202;2022-07-21T14:09:51;4.15;;;3.72;;
44181;SDS011;30436;48.888;9.202;2022-07-21T14:12:17;4.43;;;4.00;;
44181;SDS011;30436;48.888;9.202;2022-07-21T14:14:43;5.95;;;3.30;;
44181;SDS011;30436;48.888;9.202;2022-07-21T14:17:15;4.82;;;3.80;;
44181;SDS011;30436;48.888;9.202;2022-07-21T14:19:44;4.07;;;3.75;;
44181;SDS011;30436;48.888;9.202;2022-07-21T14:22:12;6.18;;;3.55;;
44181;SDS011;30436;48.888;9.202;2022-07-21T14:24:38;3.53;;;3.10;;
44181;SDS011;30436;48.888;9.202;2022-07-21T14:27:22;4.63;;;3.70;;
44181;SDS011;30436;48.888;9.202;2022-07-21T14:29:50;4.82;;;3.15;;
44181;SDS011;30436;48.888;9.202;2022-07-21T14:32:17;5.03;;;3.83;;
44181;SDS011;30436;48.888;9.202;2022-07-21T14:34:50;4.78;;;3.70;;
44181;SDS011;30436;48.888;9.202;2022-07-21T14:37:17;4.60;;;3.45;;
44181;SDS011;30436;48.888;9.202;2022-07-21T14:39:44;4.97;;;3.53;;
44181;SDS011;30436;48.888;9.202;2022-07-21T14:42:11;5.72;;;3.97;;
44181;SDS011;30436;48.888;9.202;2022-07-21T14:44:37;5.35;;;3.83;;
44181;SDS011;30436;48.888;9.202;2022-07-21T14:47:04;5.60;;;3.95;;
44181;SDS011;30436;48.888;9.202;2022-07-21T14:49:30;3.95;;;3.58;;
44181;SDS011;30436;48.888;9.202;2022-07-21T14:51:56;4.03;;;3.58;;
44181;SDS011;30436;48.888;9.202;2022-07-21T14:54:22;4.85;;;3.33;;
44181;SDS011;30436;48.888;9.202;2022-07-21T14:56:55;3.40;;;3.10;;
44181;SDS011;30436;48.888;9.202;2022-07-21T14:59:21;5.93;;;3.40;;
44181;SDS011;30436;48.888;9.202;2022-07-21T15:01:47;5.10;;;3.13;;
44181;SDS011;30436;48.888;9.202;2022-07-21T15:04:13;3.10;;;2.90;;
44181;SDS011;30436;48.888;9.202;2022-07-21T15:06:39;4.28;;;3.53;;
44181;SDS011;30436;48.888;9.202;2022-07-21T15:09:05;4.05;;;3.20;;
44181;SDS011;30436;48.888;9.202;2022-07-21T15:11:30;3.72;;;2.90;;
44181;SDS011;30436;48.888;9.202;2022-07-21T15:13:56;4.80;;;3.28;;
44181;SDS011;30436;48.888;9.202;2022-07-21T15:16:22;3.45;;;3.20;;
44181;SDS011;30436;48.888;9.202;2022-07-21T15:18:48;4.35;;;3.30;;
44181;SDS011;30436;48.888;9.202;2022-07-21T15:21:14;3.50;;;3.20;;
44181;SDS011;30436;48.888;9.202;2022-07-21T15:23:39;4.35;;;3.30;;
44181;SDS011;30436;48.888;9.202;2022-07-21T15:26:06;6.50;;;3.30;;
44181;SDS011;30436;48.888;9.202;2022-07-21T15:28:32;3.35;;;3.03;;
44181;SDS011;30436;48.888;9.202;2022-07-21T15:30:58;3.65;;;3.35;;
44181;SDS011;30436;48.888;9.202;2022-07-21T15:33:23;4.35;;;3.10;;
44181;SDS011;30436;48.888;9.202;2022-07-21T15:35:49;3.55;;;3.25;;
44181;SDS011;30436;48.888;9.202;2022-07-21T15:38:19;4.85;;;3.50;;
44181;SDS011;30436;48.888;9.202;2022-07-21T15:40:46;4.10;;;3.30;;
44181;SDS011;30436;48.888;9.202;2022-07-21T15:43:12;5.93;;;3.60;;
44181;SDS011;30436;48.888;9.202;2022-07-21T15:45:37;4.05;;;3.20;;
44181;SDS011;30436;48.888;9.202;2022-07-21T15:48:04;3.85;;;3.15;;
44181;SDS011;30436;48.888;9.202;2022-07-21T15:50:30;4.70;;;3.40;;
44181;SDS011;30436;48.888;9.202;2022-07-21T15:52:56;3.33;;;3.05;;
44181;SDS011;30436;48.888;9.202;2022-07-21T15:55:21;4.13;;;3.38;;
44181;SDS011;30436;48.888;9.202;2022-07-21T15:57:47;4.72;;;3.40;;
44181;SDS011;30436;48.888;9.202;2022-07-21T16:00:13;3.50;;;3.17;;
44181;SDS011;30436;48.888;9.202;2022-07-21T16:02:40;3.58;;;3.25;;
44181;SDS011;30436;48.888;9.202;2022-07-21T16:05:11;3.80;;;3.47;;
44181;SDS011;30436;48.888;9.202;2022-07-21T16:07:42;4.97;;;3.22;;
44181;SDS011;30436;48.888;9.202;2022-07-21T16:10:09;3.45;;;3.15;;
44181;SDS011;30436;48.888;9.202;2022-07-21T16:12:35;4.05;;;3.55;;
44181;SDS011;30436;48.888;9.202;2022-07-21T16:15:02;5.03;;;3.22;;
44181;SDS011;30436;48.888;9.202;2022-07-21T16:17:28;5.40;;;3.15;;
44181;SDS011;30436;48.888;9.202;2022-07-21T16:19:54;5.72;;;3.33;;
44181;SDS011;30436;48.888;9.202;2022-07-21T16:22:20;3.90;;;3.38;;
44181;SDS011;30436;48.888;9.202;2022-07-21T16:24:46;3.78;;;3.20;;
44181;SDS011;30436;48.888;9.202;2022-07-21T16:27:12;4.22;;;3.30;;
44181;SDS011;30436;48.888;9.202;2022-07-21T16:29:38;3.40;;;3.10;;